TAF Text Data
IDs:
Format:
Raw Decoded Include METAR

Data at: 0233 UTC 24 Jun 2021

KCDR 240059Z 2401/2424 07015G26KT P6SM VCTS BKN100CB
  FM240200 35009KT P6SM BKN150
  FM240700 31008KT P6SM SCT150
  FM241500 05008KT P6SM SCT100
  FM241900 08010G20KT P6SM BKN080